Barrow, AK

04:21 AKDT le 28 juillet 2014 (GMT -0800)
Wiley Post-Will Rogers Memorial (PABR) Alt. 43 ft | 71.28 °N, 156.79 °W | Change Station

Current weather conditions updated 9 minutes ago

Overcast
Couvert
30 ° F
Paraît 22 ° F
N
9
Vent Variable Vent de NE

Aujourd’hui il est prévu de faire plus froid qu’hier.

Aujourd'hui
Haut(e) -- | Bas -- ° F
--% Risque de précip.
Hier
Haut(e) -- | Bas -- ° F
Precip. -- pouce
3:06 AM 2:01 AM
Nouvelle lune, 2% visible
Pression 30.28 pouce
Visibilité 2.5 Miles terrestres
Nuages Couvert 500 ft
Refroidissement éolien 22 ° F
Point de rosée 29 ° F
Humidité 96%
Précipitations 0.00 pouce
Profondeur de la couche neigeuse Non disponible.
UV 0 sur 12
Pollen Non disponible.
Qualité de l'air Non disponible.
Flu Activity Non disponible.
SPECI PABR 281212Z 05008KT 2 1/2SM BR OVC005 M01/M02 A3028 RMK AO2 VIS 1 1/4V5 T10111017

More Conditions Fewer Conditions

Pression 30.28 pouce
Visibilité 2.5 Miles terrestres
Nuages Couvert 500 ft
Refroidissement éolien 22 ° F
Point de rosée 29 ° F
Humidité 96%
Précipitations 0.00 pouce
Profondeur de la couche neigeuse Non disponible.
UV 0 sur 12
Pollen Non disponible.
Qualité de l'air Non disponible.
Flu Activity Non disponible.
SPECI PABR 281212Z 05008KT 2 1/2SM BR OVC005 M01/M02 A3028 RMK AO2 VIS 1 1/4V5 T10111017

More Conditions Fewer Conditions

10-Day Weather Forecast

Almanac

Astronomie

Jul. 28, 2014 Lever Coucher
Temps réel 03:06 AKDT 02:01 AKDT
Crépuscule civil Sun does not rise Sun does not rise
Crépuscule nautique Sun does not rise Sun does not rise
Crépuscule astronomique Sun does not rise Sun does not rise
Lune 07:45 AKDT 23:35 AKDT
Durée de lumière visible 24h 00m
Longueur du jour
22h 55m
Tomorrow will be 0m 1s shorter.
Nouvelle lune, 2% of the Moon is Illuminated
Aujourd'hui
Nouvelle lune
août 3
Premier quartier
août 10
Pleine lune
août 17
Dernier quartier
août 25
Nouveau

Extrêmes aujourd'hui

State Highs State Lows

Community

WunderPhotos

Upload Photos

1,738,311 Photos téléchargées !

Nearby

Qualité de l'air

Not available.

Épaisseur de neige

Station Depth Altitude
Imnaviat Creek 0 in 3050 ft
Coldfoot 0 in 1040 ft
Gobblers Knob 0 in 2030 ft
Fort Yukon 3 in 430 ft
Eagle Summit 0 in 3650 ft

Activité sismique

Ville Distance Mag. Time & Date
No recent earthquake activity has been reported nearby.
Minimum magnitude displayed is 2.5.

Températures des eaux côtières

Lieu Température
Aucun rapport de station

Stations météo à proximité

Emplacement de la station Température Refroidissement éolien Point de rosée Humidité Vent Precip. Alt. Mise à jour Type
Barrow Utilities, BARROW, AK 31.5 ° F 32 ° F 31 ° F 97% SE  à  2.0 mph 0.00 pouce / hr 30 ft 4:21 AM AKDT Rapid Fire (temps réel)
CRN BARROW OBSERVATORY BARROW 4 ENE AK , Barrow, AK 30 ° F 22 ° F 29 ° F 98% Nord  à  9 mph 0.00 pouce / hr 15 ft 3:00 AM AKDT MADIS
Barrow tundra, Barrow, AK 30.3 ° F 30 ° F 30 ° F 100% Est  à  0.0 mph 0.00 pouce / hr 10 ft 2:43 AM AKDT Normal

Show More Stations Show Fewer Stations